^^
MeteoGriva-Weather Station Historical Data
Daily Summary for August 26, 2020 Units:  Both    English   Metric
Daily Weekly Monthly Yearly Custom
  High: Low: Average:
Temperature: 54 °F /  12.2 °C 41.4 °F /  5.2 °C 46.6 °F /  8.1 °C
Dew Point: 47.8 °F /  8.8 °C 35.1 °F /  1.7 °C 40.5 °F /  4.7 °C
Humidity: 99% 63.7% 79%
Wind Speed: 2.5mph /  4km/h - 0.1mph /  0.2km/h
Wind Gust: 7.6mph /  12.2km/h - -
Wind- - SSE
Pressure: 30.3 in /  1025.4 hPa 30.1 in /  1020.3 hPa -
Precipitation: 0 in /  0.0 mm    
Historical Graphs
 
 
Tabular Data for August 26, 2020
Time Temperature Dew Point Pressure Wind Wind Speed Wind Gust Humidity Rainfall Rate (Hourly) solar
00:04 43.2 °F /  6.2 °C 35.8 °F /  2.1 °C 30.3in /  1024.7hPa Calm     75% 0in /  0.0mm 0 W/m2
00:09 43.2 °F /  6.2 °C 35.6 °F /  2 °C 30.3in /  1024.7hPa Calm     74.4% 0in /  0.0mm 0 W/m2
00:14 43.2 °F /  6.2 °C 35.2 °F /  1.8 °C 30.3in /  1024.7hPa Calm     73.7% 0in /  0.0mm 0 W/m2
00:19 43.3 °F /  6.3 °C 35.2 °F /  1.8 °C 30.3in /  1024.7hPa Calm     73% 0in /  0.0mm 0 W/m2
00:24 43.7 °F /  6.5 °C 35.1 °F /  1.7 °C 30.3in /  1024.7hPa Calm     71.6% 0in /  0.0mm 0 W/m2
00:29 43.9 °F /  6.6 °C 35.1 °F /  1.7 °C 30.3in /  1024.7hPa Calm     71% 0in /  0.0mm 0 W/m2
00:34 43.9 °F /  6.6 °C 35.1 °F /  1.7 °C 30.3in /  1024.4hPa Calm     71% 0in /  0.0mm 0 W/m2
00:39 44.1 °F /  6.7 °C 35.6 °F /  2 °C 30.3in /  1024.4hPa Calm     71.9% 0in /  0.0mm 0 W/m2
00:44 44.2 °F /  6.8 °C 35.6 °F /  2 °C 30.3in /  1024.4hPa Calm     71.6% 0in /  0.0mm 0 W/m2
00:49 44.1 °F /  6.7 °C 36 °F /  2.2 °C 30.3in /  1024.7hPa Calm     72.8% 0in /  0.0mm 0 W/m2
00:54 44.1 °F /  6.7 °C 36.1 °F /  2.3 °C 30.3in /  1024.4hPa Calm     73.9% 0in /  0.0mm 0 W/m2
00:59 43.7 °F /  6.5 °C 36.1 °F /  2.3 °C 30.3in /  1024.4hPa Calm     74.7% 0in /  0.0mm 0 W/m2
01:04 43 °F /  6.1 °C 36.1 °F /  2.3 °C 30.3in /  1024.4hPa Calm     76.6% 0in /  0.0mm 0 W/m2
01:09 43 °F /  6.1 °C 36.3 °F /  2.4 °C 30.3in /  1024.4hPa Calm     77% 0in /  0.0mm 0 W/m2
01:14 42.8 °F /  6 °C 36.3 °F /  2.4 °C 30.3in /  1024.4hPa Calm     77.8% 0in /  0.0mm 0 W/m2
01:19 42.4 °F /  5.8 °C 36.3 °F /  2.4 °C 30.3in /  1024.4hPa Calm     78.9% 0in /  0.0mm 0 W/m2
01:24 42.1 °F /  5.6 °C 36 °F /  2.2 °C 30.2in /  1024.0hPa Calm     79% 0in /  0.0mm 0 W/m2
01:29 41.9 °F /  5.5 °C 36 °F /  2.2 °C 30.2in /  1024.0hPa Calm     79.3% 0in /  0.0mm 0 W/m2
01:34 41.9 °F /  5.5 °C 36.1 °F /  2.3 °C 30.2in /  1024.0hPa Calm     80% 0in /  0.0mm 0 W/m2
01:39 41.7 °F /  5.4 °C 36 °F /  2.2 °C 30.2in /  1024.0hPa Calm     79.6% 0in /  0.0mm 0 W/m2
01:44 41.9 °F /  5.5 °C 35.6 °F /  2 °C 30.2in /  1024.0hPa Calm     78.4% 0in /  0.0mm 0 W/m2
01:49 41.9 °F /  5.5 °C 35.4 °F /  1.9 °C 30.2in /  1024.0hPa Calm     77.4% 0in /  0.0mm 0 W/m2
01:54 42.1 °F /  5.6 °C 35.8 °F /  2.1 °C 30.2in /  1024.0hPa Calm     78% 0in /  0.0mm 0 W/m2
01:59 42.3 °F /  5.7 °C 35.6 °F /  2 °C 30.3in /  1024.4hPa Calm     77.1% 0in /  0.0mm 0 W/m2
02:04 43.2 °F /  6.2 °C 36 °F /  2.2 °C 30.3in /  1024.4hPa Calm     75.3% 0in /  0.0mm 0 W/m2
02:09 43.2 °F /  6.2 °C 35.8 °F /  2.1 °C 30.3in /  1024.4hPa Calm     74.8% 0in /  0.0mm 0 W/m2
02:14 43.3 °F /  6.3 °C 35.6 °F /  2 °C 30.3in /  1024.4hPa Calm     74% 0in /  0.0mm 0 W/m2
02:19 43.5 °F /  6.4 °C 35.6 °F /  2 °C 30.2in /  1024.0hPa Calm     73.5% 0in /  0.0mm 0 W/m2
02:24 43.5 °F /  6.4 °C 36.5 °F /  2.5 °C 30.2in /  1024.0hPa Calm     75.8% 0in /  0.0mm 0 W/m2
02:29 43.5 °F /  6.4 °C 36.5 °F /  2.5 °C 30.3in /  1024.4hPa Calm     76% 0in /  0.0mm 0 W/m2
02:34 43.5 °F /  6.4 °C 36.7 °F /  2.6 °C 30.3in /  1024.4hPa Calm     76.4% 0in /  0.0mm 0 W/m2
02:39 43.3 °F /  6.3 °C 36.5 °F /  2.5 °C 30.3in /  1024.4hPa Calm     76.6% 0in /  0.0mm 0 W/m2
02:44 43.2 °F /  6.2 °C 36.3 °F /  2.4 °C 30.3in /  1024.4hPa Calm     76.3% 0in /  0.0mm 0 W/m2
02:49 43.2 °F /  6.2 °C 36.1 °F /  2.3 °C 30.3in /  1024.4hPa Calm     75.8% 0in /  0.0mm 0 W/m2
02:54 43.3 °F /  6.3 °C 36 °F /  2.2 °C 30.3in /  1024.4hPa Calm     74.7% 0in /  0.0mm 0 W/m2
02:59 43.3 °F /  6.3 °C 36.3 °F /  2.4 °C 30.3in /  1024.4hPa Calm     75.6% 0in /  0.0mm 0 W/m2
03:04 43.3 °F /  6.3 °C 36.7 °F /  2.6 °C 30.3in /  1024.4hPa Calm     76.8% 0in /  0.0mm 0 W/m2
03:09 43.3 °F /  6.3 °C 36.9 °F /  2.7 °C 30.3in /  1024.4hPa Calm     77.9% 0in /  0.0mm 0 W/m2
03:14 43.3 °F /  6.3 °C 37 °F /  2.8 °C 30.3in /  1024.4hPa Calm     78.7% 0in /  0.0mm 0 W/m2
03:19 43.2 °F /  6.2 °C 37 °F /  2.8 °C 30.3in /  1024.4hPa Calm     78.9% 0in /  0.0mm 0 W/m2
03:24 43.3 °F /  6.3 °C 36.7 °F /  2.6 °C 30.3in /  1024.4hPa Calm     77.1% 0in /  0.0mm 0 W/m2
03:29 43.3 °F /  6.3 °C 37 °F /  2.8 °C 30.3in /  1024.4hPa Calm     78.3% 0in /  0.0mm 0 W/m2
03:34 43.2 °F /  6.2 °C 37.6 °F /  3.1 °C 30.3in /  1024.4hPa Calm     80.2% 0in /  0.0mm 0 W/m2
03:39 43.2 °F /  6.2 °C 37.4 °F /  3 °C 30.3in /  1024.4hPa Calm     80.3% 0in /  0.0mm 0 W/m2
03:44 42.3 °F /  5.7 °C 36.7 °F /  2.6 °C 30.3in /  1024.4hPa Calm     80.3% 0in /  0.0mm 0 W/m2
03:49 42.1 °F /  5.6 °C 36.3 °F /  2.4 °C 30.3in /  1024.4hPa Calm     80% 0in /  0.0mm 0 W/m2
03:54 42.1 °F /  5.6 °C 36.3 °F /  2.4 °C 30.2in /  1024.0hPa Calm     80% 0in /  0.0mm 0 W/m2
03:59 42.1 °F /  5.6 °C 36.5 °F /  2.5 °C 30.2in /  1024.0hPa Calm     80.7% 0in /  0.0mm 0 W/m2
04:04 42.1 °F /  5.6 °C 36.9 °F /  2.7 °C 30.2in /  1024.0hPa Calm     81.2% 0in /  0.0mm 0 W/m2
04:09 42.1 °F /  5.6 °C 36.7 °F /  2.6 °C 30.2in /  1024.0hPa Calm     81.2% 0in /  0.0mm 0 W/m2
04:14 42.1 °F /  5.6 °C 36.7 °F /  2.6 °C 30.2in /  1024.0hPa Calm     80.9% 0in /  0.0mm 0 W/m2
04:19 42.1 °F /  5.6 °C 36.7 °F /  2.6 °C 30.2in /  1024.0hPa Calm     81% 0in /  0.0mm 0 W/m2
04:24 42.1 °F /  5.6 °C 36.7 °F /  2.6 °C 30.2in /  1024.0hPa Calm     81% 0in /  0.0mm 0 W/m2
04:29 41.9 °F /  5.5 °C 36.9 °F /  2.7 °C 30.2in /  1024.0hPa Calm     81.7% 0in /  0.0mm 0 W/m2
04:34 41.9 °F /  5.5 °C 36.5 °F /  2.5 °C 30.2in /  1024.0hPa Calm     80.9% 0in /  0.0mm 0 W/m2
04:39 41.9 °F /  5.5 °C 36.1 °F /  2.3 °C 30.2in /  1024.0hPa Calm     80% 0in /  0.0mm 0 W/m2
04:44 42.1 °F /  5.6 °C 36.5 °F /  2.5 °C 30.2in /  1024.0hPa Calm     80.6% 0in /  0.0mm 0 W/m2
04:49 42.3 °F /  5.7 °C 36.7 °F /  2.6 °C 30.2in /  1024.0hPa Calm     80.8% 0in /  0.0mm 0 W/m2
04:54 42.3 °F /  5.7 °C 36.9 °F /  2.7 °C 30.2in /  1023.7hPa Calm     81% 0in /  0.0mm 0 W/m2
04:59 42.3 °F /  5.7 °C 36.9 °F /  2.7 °C 30.2in /  1023.7hPa Calm     80.8% 0in /  0.0mm 0 W/m2
05:04 42.8 °F /  6 °C 37.6 °F /  3.1 °C 30.2in /  1023.7hPa Calm     81.4% 0in /  0.0mm 0 W/m2
05:09 42.6 °F /  5.9 °C 37.4 °F /  3 °C 30.2in /  1024.0hPa Calm     81.3% 0in /  0.0mm 0 W/m2
05:14 42.6 °F /  5.9 °C 37.4 °F /  3 °C 30.2in /  1024.0hPa Calm     81.6% 0in /  0.0mm 0 W/m2
05:19 42.6 °F /  5.9 °C 37 °F /  2.8 °C 30.2in /  1024.0hPa Calm     80.3% 0in /  0.0mm 0 W/m2
05:24 42.8 °F /  6 °C 36.9 °F /  2.7 °C 30.2in /  1024.0hPa Calm     79.3% 0in /  0.0mm 0 W/m2
05:29 42.8 °F /  6 °C 37 °F /  2.8 °C 30.2in /  1024.0hPa Calm     80% 0in /  0.0mm 0 W/m2
05:34 42.8 °F /  6 °C 36.9 °F /  2.7 °C 30.2in /  1023.7hPa Calm     79.7% 0in /  0.0mm 0 W/m2
05:39 42.8 °F /  6 °C 36.7 °F /  2.6 °C 30.2in /  1023.7hPa Calm     79% 0in /  0.0mm 0 W/m2
05:44 42.8 °F /  6 °C 36.7 °F /  2.6 °C 30.2in /  1023.7hPa Calm     79% 0in /  0.0mm 0 W/m2
05:49 42.8 °F /  6 °C 36.7 °F /  2.6 °C 30.2in /  1023.7hPa Calm     78.8% 0in /  0.0mm 0 W/m2
05:54 42.8 °F /  6 °C 36.7 °F /  2.6 °C 30.2in /  1023.7hPa Calm     78.7% 0in /  0.0mm 0 W/m2
05:59 42.8 °F /  6 °C 36.5 °F /  2.5 °C 30.2in /  1023.7hPa Calm     78% 0in /  0.0mm 0 W/m2
06:04 42.6 °F /  5.9 °C 36.5 °F /  2.5 °C 30.2in /  1023.7hPa Calm     78.4% 0in /  0.0mm 0 W/m2
06:09 42.6 °F /  5.9 °C 36.3 °F /  2.4 °C 30.2in /  1024.0hPa Calm     78.2% 0in /  0.0mm 0 W/m2
06:14 42.6 °F /  5.9 °C 36.5 °F /  2.5 °C 30.2in /  1023.7hPa Calm     79.3% 0in /  0.0mm 0 W/m2
06:19 42.4 °F /  5.8 °C 37.2 °F /  2.9 °C 30.2in /  1023.7hPa Calm     81.4% 0in /  0.0mm 0 W/m2
06:24 41.5 °F /  5.3 °C 36.7 °F /  2.6 °C 30.2in /  1023.7hPa Calm     82.8% 0in /  0.0mm 0 W/m2
06:29 41.4 °F /  5.2 °C 36.3 °F /  2.4 °C 30.2in /  1023.7hPa Calm     82% 0in /  0.0mm 0 W/m2
06:34 41.4 °F /  5.2 °C 36.1 °F /  2.3 °C 30.2in /  1023.7hPa Calm     81.3% 0in /  0.0mm 0 W/m2
06:39 41.4 °F /  5.2 °C 36.1 °F /  2.3 °C 30.2in /  1023.7hPa Calm     81.2% 0in /  0.0mm 0 W/m2
06:44 41.4 °F /  5.2 °C 36.3 °F /  2.4 °C 30.2in /  1024.0hPa Calm     82% 0in /  0.0mm 0 W/m2
06:49 41.4 °F /  5.2 °C 35.8 °F /  2.1 °C 30.2in /  1024.0hPa Calm     80.4% 0in /  0.0mm 0 W/m2
06:54 41.4 °F /  5.2 °C 35.6 °F /  2 °C 30.2in /  1024.0hPa Calm     80% 0in /  0.0mm 0 W/m2
06:59 41.4 °F /  5.2 °C 36 °F /  2.2 °C 30.2in /  1024.0hPa Calm     80.9% 0in /  0.0mm 0 W/m2
07:04 41.7 °F /  5.4 °C 36.1 °F /  2.3 °C 30.2in /  1024.0hPa Calm     80.4% 0in /  0.0mm 0 W/m2
07:09 41.7 °F /  5.4 °C 36.5 °F /  2.5 °C 30.2in /  1024.0hPa Calm     81.3% 0in /  0.0mm 0 W/m2
07:14 41.7 °F /  5.4 °C 36.3 °F /  2.4 °C 30.2in /  1024.0hPa Calm     81% 0in /  0.0mm 0 W/m2
07:19 41.7 °F /  5.4 °C 36.3 °F /  2.4 °C 30.2in /  1024.0hPa Calm     81% 0in /  0.0mm 0 W/m2
07:24 41.5 °F /  5.3 °C 36.1 °F /  2.3 °C 30.2in /  1024.0hPa Calm     81.1% 0in /  0.0mm 0 W/m2
07:29 41.5 °F /  5.3 °C 36.1 °F /  2.3 °C 30.2in /  1024.0hPa Calm     81% 0in /  0.0mm 0 W/m2
07:34 41.5 °F /  5.3 °C 36.1 °F /  2.3 °C 30.2in /  1024.0hPa Calm     81% 0in /  0.0mm 0 W/m2
07:39 41.5 °F /  5.3 °C 36 °F /  2.2 °C 30.2in /  1024.0hPa Calm     80.8% 0in /  0.0mm 0 W/m2
07:44 42.1 °F /  5.6 °C 36.3 °F /  2.4 °C 30.2in /  1024.0hPa Calm     79.7% 0in /  0.0mm 0 W/m2
07:49 42.4 °F /  5.8 °C 36.1 °F /  2.3 °C 30.2in /  1024.0hPa Calm     78.1% 0in /  0.0mm 0 W/m2
07:54 42.4 °F /  5.8 °C 36.1 °F /  2.3 °C 30.2in /  1024.0hPa Calm     78% 0in /  0.0mm 2 W/m2
07:59 42.4 °F /  5.8 °C 36.1 °F /  2.3 °C 30.2in /  1024.0hPa Calm     78.6% 0in /  0.0mm 5 W/m2
08:04 42.4 °F /  5.8 °C 36.1 °F /  2.3 °C 30.2in /  1024.0hPa Calm     78.4% 0in /  0.0mm 9 W/m2
08:09 42.4 °F /  5.8 °C 35.8 °F /  2.1 °C 30.2in /  1024.0hPa Calm     77% 0in /  0.0mm 13 W/m2
08:14 42.4 °F /  5.8 °C 36.1 °F /  2.3 °C 30.3in /  1024.4hPa Calm     77.7% 0in /  0.0mm 21 W/m2
08:19 42.6 °F /  5.9 °C 36.3 °F /  2.4 °C 30.3in /  1024.4hPa Calm     78% 0in /  0.0mm 28 W/m2
08:24 43 °F /  6.1 °C 36.3 °F /  2.4 °C 30.3in /  1024.4hPa Calm     77.2% 0in /  0.0mm 37 W/m2
08:29 43.3 °F /  6.3 °C 36.7 °F /  2.6 °C 30.3in /  1024.7hPa Calm     77.6% 0in /  0.0mm 55 W/m2
08:34 43.3 °F /  6.3 °C 36.3 °F /  2.4 °C 30.3in /  1024.7hPa Calm     75.7% 0in /  0.0mm 69 W/m2
08:39 43.9 °F /  6.6 °C 35.8 °F /  2.1 °C 30.3in /  1024.7hPa Calm     72.9% 0in /  0.0mm 77 W/m2
08:44 45 °F /  7.2 °C 36.5 °F /  2.5 °C 30.3in /  1024.4hPa Calm     72.2% 0in /  0.0mm 83 W/m2
08:49 45.7 °F /  7.6 °C 37.6 °F /  3.1 °C 30.3in /  1024.7hPa Calm     73% 0in /  0.0mm 88 W/m2
08:54 45.7 °F /  7.6 °C 37.6 °F /  3.1 °C 30.3in /  1024.7hPa Calm     72.8% 0in /  0.0mm 93 W/m2
08:59 45.7 °F /  7.6 °C 37.2 °F /  2.9 °C 30.3in /  1024.7hPa Calm     71.9% 0in /  0.0mm 94 W/m2
09:04 46.6 °F /  8.1 °C 37.4 °F /  3 °C 30.3in /  1025.1hPa Calm     70.2% 0in /  0.0mm 91 W/m2
09:09 47.3 °F /  8.5 °C 38.5 °F /  3.6 °C 30.3in /  1025.1hPa Calm     71.8% 0in /  0.0mm 94 W/m2
09:14 46.9 °F /  8.3 °C 38.7 °F /  3.7 °C 30.3in /  1025.1hPa Calm     72.8% 0in /  0.0mm 96 W/m2
09:19 46.8 °F /  8.2 °C 38.5 °F /  3.6 °C 30.3in /  1024.7hPa Calm     72.7% 0in /  0.0mm 98 W/m2
09:24 46.6 °F /  8.1 °C 38.1 °F /  3.4 °C 30.3in /  1025.1hPa Calm     72% 0in /  0.0mm 94 W/m2
09:29 46.4 °F /  8 °C 37.9 °F /  3.3 °C 30.3in /  1025.1hPa Calm     72% 0in /  0.0mm 87 W/m2
09:34 46.4 °F /  8 °C 37.8 °F /  3.2 °C 30.3in /  1025.1hPa Calm     71.8% 0in /  0.0mm 86 W/m2
09:39 46.4 °F /  8 °C 37.8 °F /  3.2 °C 30.3in /  1025.1hPa Calm   2.5mph /  4km/h 71% 0in /  0.0mm 86 W/m2
09:44 47.1 °F /  8.4 °C 38.3 °F /  3.5 °C 30.3in /  1025.1hPa Calm     70.9% 0in /  0.0mm 86 W/m2
09:49 47.8 °F /  8.8 °C 38.5 °F /  3.6 °C 30.3in /  1025.1hPa Calm     69.8% 0in /  0.0mm 93 W/m2
09:54 47.8 °F /  8.8 °C 38.1 °F /  3.4 °C 30.3in /  1025.1hPa Calm     68.7% 0in /  0.0mm 105 W/m2
09:59 48 °F /  8.9 °C 38.5 °F /  3.6 °C 30.3in /  1025.1hPa Calm     69.7% 0in /  0.0mm 106 W/m2
10:04 48 °F /  8.9 °C 38.7 °F /  3.7 °C 30.3in /  1025.4hPa Calm     70% 0in /  0.0mm 112 W/m2
10:09 48 °F /  8.9 °C 38.7 °F /  3.7 °C 30.3in /  1025.1hPa Calm     70.1% 0in /  0.0mm 116 W/m2
10:14 48 °F /  8.9 °C 39 °F /  3.9 °C 30.3in /  1025.1hPa Calm     70.9% 0in /  0.0mm 117 W/m2
10:19 48 °F /  8.9 °C 39 °F /  3.9 °C 30.3in /  1025.4hPa Calm     70.9% 0in /  0.0mm 122 W/m2
10:24 49.1 °F /  9.5 °C 39.2 °F /  4 °C 30.3in /  1025.1hPa Calm     68.9% 0in /  0.0mm 125 W/m2
10:29 50.7 °F /  10.4 °C 39.9 °F /  4.4 °C 30.3in /  1025.1hPa Calm     66.7% 0in /  0.0mm 124 W/m2
10:34 50.7 °F /  10.4 °C 40.5 °F /  4.7 °C 30.3in /  1025.1hPa Calm     67.8% 0in /  0.0mm 119 W/m2
10:39 50.7 °F /  10.4 °C 40.6 °F /  4.8 °C 30.3in /  1025.1hPa Calm     68.2% 0in /  0.0mm 115 W/m2
10:44 50.7 °F /  10.4 °C 40.5 °F /  4.7 °C 30.3in /  1025.1hPa Calm     67.7% 0in /  0.0mm 113 W/m2
10:49 50.7 °F /  10.4 °C 40.6 °F /  4.8 °C 30.3in /  1025.1hPa Calm     68.3% 0in /  0.0mm 105 W/m2
10:54 50.5 °F /  10.3 °C 41 °F /  5 °C 30.3in /  1025.1hPa Calm     69.6% 0in /  0.0mm 105 W/m2
10:59 50.2 °F /  10.1 °C 40.8 °F /  4.9 °C 30.3in /  1025.1hPa Calm     69.8% 0in /  0.0mm 115 W/m2
11:04 49.6 °F /  9.8 °C 40.1 °F /  4.5 °C 30.3in /  1025.1hPa Calm     69.1% 0in /  0.0mm 120 W/m2
11:09 48.9 °F /  9.4 °C 39.9 °F /  4.4 °C 30.3in /  1025.1hPa Calm     70.9% 0in /  0.0mm 120 W/m2
11:14 48.9 °F /  9.4 °C 39.6 °F /  4.2 °C 30.3in /  1025.1hPa Calm     70.1% 0in /  0.0mm 126 W/m2
11:19 48.9 °F /  9.4 °C 39.4 °F /  4.1 °C 30.3in /  1025.1hPa Calm     69.3% 0in /  0.0mm 127 W/m2
11:24 49.3 °F /  9.6 °C 39.7 °F /  4.3 °C 30.3in /  1024.7hPa Calm     69.6% 0in /  0.0mm 120 W/m2
11:29 49.8 °F /  9.9 °C 40.1 °F /  4.5 °C 30.3in /  1025.1hPa Calm     68.9% 0in /  0.0mm 128 W/m2
11:34 49.8 °F /  9.9 °C 39.6 °F /  4.2 °C 30.3in /  1024.7hPa Calm     67.2% 0in /  0.0mm 128 W/m2
11:39 50 °F /  10 °C 40.1 °F /  4.5 °C 30.3in /  1024.4hPa Calm     68.7% 0in /  0.0mm 142 W/m2
11:44 50 °F /  10 °C 40.5 °F /  4.7 °C 30.3in /  1024.4hPa Calm     69.3% 0in /  0.0mm 163 W/m2
11:49 50.2 °F /  10.1 °C 39.7 °F /  4.3 °C 30.3in /  1024.4hPa Calm   4.9mph /  7.9km/h 67.3% 0in /  0.0mm 172 W/m2
11:54 50.4 °F /  10.2 °C 39.6 °F /  4.2 °C 30.3in /  1024.4hPa Calm     66.8% 0in /  0.0mm 172 W/m2
11:59 50.5 °F /  10.3 °C 39.9 °F /  4.4 °C 30.3in /  1024.4hPa Calm     67.1% 0in /  0.0mm 136 W/m2
12:04 50.4 °F /  10.2 °C 40.5 °F /  4.7 °C 30.3in /  1024.4hPa SE 0.2mph /  0.4km/h 4.9mph /  7.9km/h 68.4% 0in /  0.0mm 120 W/m2
12:09 49.8 °F /  9.9 °C 39.7 °F /  4.3 °C 30.2in /  1024.0hPa South 0.3mph /  0.5km/h 4.9mph /  7.9km/h 68% 0in /  0.0mm 125 W/m2
12:14 50 °F /  10 °C 39.6 °F /  4.2 °C 30.2in /  1024.0hPa SE 0.2mph /  0.3km/h 2.5mph /  4km/h 67.1% 0in /  0.0mm 129 W/m2
12:19 50 °F /  10 °C 39.6 °F /  4.2 °C 30.2in /  1024.0hPa Calm     67% 0in /  0.0mm 109 W/m2
12:24 50 °F /  10 °C 39.9 °F /  4.4 °C 30.2in /  1024.0hPa SE 0.5mph /  0.8km/h 4.9mph /  7.9km/h 67.8% 0in /  0.0mm 105 W/m2
12:29 48.9 °F /  9.4 °C 39.2 °F /  4 °C 30.2in /  1024.0hPa Calm   2.5mph /  4km/h 68.8% 0in /  0.0mm 118 W/m2
12:34 48.9 °F /  9.4 °C 39 °F /  3.9 °C 30.2in /  1023.7hPa Calm     68.4% 0in /  0.0mm 159 W/m2
12:39 48.9 °F /  9.4 °C 39.2 °F /  4 °C 30.2in /  1023.7hPa Calm     68.8% 0in /  0.0mm 182 W/m2
12:44 49.1 °F /  9.5 °C 39 °F /  3.9 °C 30.2in /  1023.4hPa Calm     68% 0in /  0.0mm 152 W/m2
12:49 49.8 °F /  9.9 °C 39.7 °F /  4.3 °C 30.2in /  1023.4hPa Calm     68% 0in /  0.0mm 151 W/m2
12:54 49.8 °F /  9.9 °C 40.1 °F /  4.5 °C 30.2in /  1023.4hPa Calm     68.8% 0in /  0.0mm 184 W/m2
12:59 49.8 °F /  9.9 °C 39.7 °F /  4.3 °C 30.2in /  1023.4hPa SE 0.1mph /  0.2km/h 4.9mph /  7.9km/h 68% 0in /  0.0mm 190 W/m2
13:04 50 °F /  10 °C 39.7 °F /  4.3 °C 30.2in /  1023.0hPa Calm     67.9% 0in /  0.0mm 185 W/m2
13:09 50.7 °F /  10.4 °C 40.1 °F /  4.5 °C 30.2in /  1023.0hPa Calm     67% 0in /  0.0mm 172 W/m2
13:14 50.7 °F /  10.4 °C 40.1 °F /  4.5 °C 30.2in /  1023.0hPa Calm     67% 0in /  0.0mm 146 W/m2
13:19 50.7 °F /  10.4 °C 40.5 °F /  4.7 °C 30.2in /  1022.7hPa SE 0.1mph /  0.2km/h 4.9mph /  7.9km/h 68% 0in /  0.0mm 177 W/m2
13:24 50.5 °F /  10.3 °C 40.5 °F /  4.7 °C 30.2in /  1022.7hPa SSE 0.7mph /  1.1km/h 4.9mph /  7.9km/h 68% 0in /  0.0mm 236 W/m2
13:29 50.9 °F /  10.5 °C 40.5 °F /  4.7 °C 30.2in /  1022.7hPa Calm   2.5mph /  4km/h 67.3% 0in /  0.0mm 253 W/m2
13:34 50.9 °F /  10.5 °C 40.3 °F /  4.6 °C 30.2in /  1022.4hPa SSE 0.2mph /  0.4km/h 2.5mph /  4km/h 66.8% 0in /  0.0mm 262 W/m2
13:39 51.1 °F /  10.6 °C 40.1 °F /  4.5 °C 30.2in /  1022.7hPa South 0.3mph /  0.5km/h 4.9mph /  7.9km/h 66.4% 0in /  0.0mm 278 W/m2
13:44 51.1 °F /  10.6 °C 40.3 °F /  4.6 °C 30.2in /  1022.7hPa East 0.2mph /  0.3km/h 4.9mph /  7.9km/h 66.2% 0in /  0.0mm 220 W/m2
13:49 52 °F /  11.1 °C 41 °F /  5 °C 30.2in /  1022.4hPa SE 0.4mph /  0.6km/h 4.9mph /  7.9km/h 66.1% 0in /  0.0mm 287 W/m2
13:54 52 °F /  11.1 °C 41 °F /  5 °C 30.2in /  1022.4hPa SE 0.4mph /  0.6km/h 4.9mph /  7.9km/h 66.1% 0in /  0.0mm 288 W/m2
13:59 52 °F /  11.1 °C 41 °F /  5 °C 30.2in /  1022.4hPa SSE 0.6mph /  0.9km/h 4.9mph /  7.9km/h 66% 0in /  0.0mm 282 W/m2
14:04 52.2 °F /  11.2 °C 41.2 °F /  5.1 °C 30.2in /  1022.4hPa SSE 0.6mph /  0.9km/h 4.9mph /  7.9km/h 66% 0in /  0.0mm 285 W/m2
14:09 52.5 °F /  11.4 °C 41.2 °F /  5.1 °C 30.2in /  1022.0hPa Calm   4.9mph /  7.9km/h 65.1% 0in /  0.0mm 286 W/m2
14:14 52.7 °F /  11.5 °C 41.2 °F /  5.1 °C 30.2in /  1022.0hPa South 0.1mph /  0.1km/h 2.5mph /  4km/h 64.8% 0in /  0.0mm 289 W/m2
14:19 52.7 °F /  11.5 °C 41.2 °F /  5.1 °C 30.2in /  1022.0hPa SSW 0.1mph /  0.1km/h 4.9mph /  7.9km/h 65% 0in /  0.0mm 301 W/m2
14:24 52.9 °F /  11.6 °C 41.4 °F /  5.2 °C 30.2in /  1022.0hPa South 0.1mph /  0.2km/h 2.5mph /  4km/h 64.8% 0in /  0.0mm 302 W/m2
14:29 54 °F /  12.2 °C 42.1 °F /  5.6 °C 30.2in /  1022.0hPa South 0.7mph /  1.1km/h 4.9mph /  7.9km/h 63.9% 0in /  0.0mm 299 W/m2
14:34 54 °F /  12.2 °C 41.9 °F /  5.5 °C 30.2in /  1021.7hPa SSE 1mph /  1.6km/h 4.9mph /  7.9km/h 63.7% 0in /  0.0mm 277 W/m2
14:39 54 °F /  12.2 °C 42.4 °F /  5.8 °C 30.2in /  1021.7hPa SE 2mph /  3.2km/h 7.6mph /  12.2km/h 65% 0in /  0.0mm 263 W/m2
14:44 53.8 °F /  12.1 °C 42.8 °F /  6 °C 30.2in /  1021.7hPa SSE 0.7mph /  1.1km/h 7.6mph /  12.2km/h 66.2% 0in /  0.0mm 257 W/m2
14:49 53.1 °F /  11.7 °C 42.4 °F /  5.8 °C 30.2in /  1021.7hPa South 0.4mph /  0.7km/h 4.9mph /  7.9km/h 67% 0in /  0.0mm 249 W/m2
14:54 52.9 °F /  11.6 °C 42.3 °F /  5.7 °C 30.2in /  1021.7hPa SE 0.8mph /  1.3km/h 4.9mph /  7.9km/h 67% 0in /  0.0mm 233 W/m2
14:59 52.9 °F /  11.6 °C 42.3 °F /  5.7 °C 30.2in /  1021.7hPa SSE 1.1mph /  1.7km/h 4.9mph /  7.9km/h 67% 0in /  0.0mm 223 W/m2
15:04 52.7 °F /  11.5 °C 42.3 °F /  5.7 °C 30.2in /  1021.7hPa Calm   4.9mph /  7.9km/h 67.3% 0in /  0.0mm 168 W/m2
15:09 52.2 °F /  11.2 °C 41.7 °F /  5.4 °C 30.2in /  1021.7hPa SSE 0.6mph /  0.9km/h 4.9mph /  7.9km/h 67.3% 0in /  0.0mm 128 W/m2
15:14 52 °F /  11.1 °C 41.7 °F /  5.4 °C 30.2in /  1021.7hPa SSE 0.6mph /  0.9km/h 7.6mph /  12.2km/h 67.8% 0in /  0.0mm 98 W/m2
15:19 51.8 °F /  11 °C 41.4 °F /  5.2 °C 30.2in /  1021.7hPa South 0.1mph /  0.2km/h 2.5mph /  4km/h 67.6% 0in /  0.0mm 108 W/m2
15:24 51.8 °F /  11 °C 41.2 °F /  5.1 °C 30.2in /  1021.7hPa Calm   2.5mph /  4km/h 67.1% 0in /  0.0mm 107 W/m2
15:29 51.3 °F /  10.7 °C 41 °F /  5 °C 30.2in /  1021.7hPa Calm     68% 0in /  0.0mm 101 W/m2
15:34 51.3 °F /  10.7 °C 41 °F /  5 °C 30.2in /  1021.7hPa SSE 0.3mph /  0.5km/h 2.5mph /  4km/h 68.2% 0in /  0.0mm 85 W/m2
15:39 51.1 °F /  10.6 °C 41.2 °F /  5.1 °C 30.2in /  1021.7hPa Calm     69% 0in /  0.0mm 73 W/m2
15:44 51.1 °F /  10.6 °C 41.2 °F /  5.1 °C 30.2in /  1021.7hPa Calm     69% 0in /  0.0mm 66 W/m2
15:49 51.1 °F /  10.6 °C 41.2 °F /  5.1 °C 30.2in /  1022.0hPa Calm     69% 0in /  0.0mm 64 W/m2
15:54 50.9 °F /  10.5 °C 41.2 °F /  5.1 °C 30.2in /  1021.7hPa Calm     69% 0in /  0.0mm 61 W/m2
15:59 50.9 °F /  10.5 °C 41.2 °F /  5.1 °C 30.2in /  1021.7hPa Calm     69% 0in /  0.0mm 57 W/m2
16:04 50.9 °F /  10.5 °C 41.2 °F /  5.1 °C 30.2in /  1021.7hPa Calm     69.2% 0in /  0.0mm 47 W/m2
16:09 50.9 °F /  10.5 °C 41.5 °F /  5.3 °C 30.2in /  1021.7hPa Calm     70% 0in /  0.0mm 38 W/m2
16:14 50.7 °F /  10.4 °C 41.4 °F /  5.2 °C 30.2in /  1022.0hPa Calm     70% 0in /  0.0mm 29 W/m2
16:19 50.7 °F /  10.4 °C 41.5 °F /  5.3 °C 30.2in /  1021.7hPa Calm     70.3% 0in /  0.0mm 29 W/m2
16:24 50.5 °F /  10.3 °C 41.7 °F /  5.4 °C 30.2in /  1022.0hPa Calm     71.2% 0in /  0.0mm 28 W/m2
16:29 50 °F /  10 °C 41.5 °F /  5.3 °C 30.2in /  1021.7hPa Calm     72.4% 0in /  0.0mm 29 W/m2
16:34 49.8 °F /  9.9 °C 41.9 °F /  5.5 °C 30.2in /  1022.0hPa Calm     73.8% 0in /  0.0mm 32 W/m2
16:39 49.8 °F /  9.9 °C 41.9 °F /  5.5 °C 30.2in /  1021.7hPa Calm     74% 0in /  0.0mm 30 W/m2
16:44 49.6 °F /  9.8 °C 41.7 °F /  5.4 °C 30.2in /  1021.7hPa Calm     74% 0in /  0.0mm 25 W/m2
16:49 49.6 °F /  9.8 °C 41.7 °F /  5.4 °C 30.2in /  1021.7hPa Calm     74% 0in /  0.0mm 26 W/m2
16:54 49.6 °F /  9.8 °C 41.7 °F /  5.4 °C 30.2in /  1022.0hPa Calm     74% 0in /  0.0mm 23 W/m2
16:59 49.6 °F /  9.8 °C 41.7 °F /  5.4 °C 30.2in /  1021.7hPa Calm     74.2% 0in /  0.0mm 16 W/m2
17:04 49.6 °F /  9.8 °C 42.8 °F /  6 °C 30.2in /  1021.7hPa Calm     77.3% 0in /  0.0mm 9 W/m2
17:09 49.8 °F /  9.9 °C 43.5 °F /  6.4 °C 30.2in /  1021.7hPa Calm     79.4% 0in /  0.0mm 8 W/m2
17:14 49.6 °F /  9.8 °C 44.2 °F /  6.8 °C 30.2in /  1021.7hPa Calm     81% 0in /  0.0mm 8 W/m2
17:19 49.6 °F /  9.8 °C 44.1 °F /  6.7 °C 30.2in /  1021.3hPa Calm     81.1% 0in /  0.0mm 5 W/m2
17:24 49.6 °F /  9.8 °C 44.8 °F /  7.1 °C 30.2in /  1021.7hPa Calm     82.8% 0in /  0.0mm 4 W/m2
17:29 49.5 °F /  9.7 °C 44.6 °F /  7 °C 30.2in /  1021.7hPa Calm     83.6% 0in /  0.0mm 0 W/m2
17:34 49.3 °F /  9.6 °C 44.6 °F /  7 °C 30.2in /  1021.3hPa Calm     84.2% 0in /  0.0mm 0 W/m2
17:39 49.3 °F /  9.6 °C 44.8 °F /  7.1 °C 30.2in /  1021.7hPa Calm     84.7% 0in /  0.0mm 0 W/m2
17:44 49.3 °F /  9.6 °C 45 °F /  7.2 °C 30.2in /  1021.7hPa Calm     85% 0in /  0.0mm 0 W/m2
17:49 48.9 °F /  9.4 °C 44.6 °F /  7 °C 30.2in /  1021.7hPa Calm     85% 0in /  0.0mm 0 W/m2
17:54 48.7 °F /  9.3 °C 44.4 °F /  6.9 °C 30.2in /  1021.7hPa Calm     85.2% 0in /  0.0mm 0 W/m2
17:59 48.6 °F /  9.2 °C 44.6 °F /  7 °C 30.2in /  1021.7hPa Calm   4.9mph /  7.9km/h 86% 0in /  0.0mm 0 W/m2
18:04 48.6 °F /  9.2 °C 44.1 °F /  6.7 °C 30.2in /  1021.7hPa Calm     84.4% 0in /  0.0mm 0 W/m2
18:09 48.7 °F /  9.3 °C 44.4 °F /  6.9 °C 30.2in /  1021.7hPa SSW 0.1mph /  0.2km/h 2.5mph /  4km/h 84.8% 0in /  0.0mm 0 W/m2
18:14 48.7 °F /  9.3 °C 45.3 °F /  7.4 °C 30.2in /  1021.7hPa Calm   2.5mph /  4km/h 87.8% 0in /  0.0mm 0 W/m2
18:19 48.7 °F /  9.3 °C 45.3 °F /  7.4 °C 30.2in /  1021.7hPa Calm     88.2% 0in /  0.0mm 0 W/m2
18:24 48.7 °F /  9.3 °C 45.7 °F /  7.6 °C 30.2in /  1021.7hPa Calm     89% 0in /  0.0mm 0 W/m2
18:29 48.6 °F /  9.2 °C 45.5 °F /  7.5 °C 30.2in /  1021.7hPa Calm     89% 0in /  0.0mm 0 W/m2
18:34 48.2 °F /  9 °C 45.3 °F /  7.4 °C 30.2in /  1021.7hPa Calm     89.8% 0in /  0.0mm 0 W/m2
18:39 48.2 °F /  9 °C 45.3 °F /  7.4 °C 30.2in /  1021.7hPa Calm   2.5mph /  4km/h 89.8% 0in /  0.0mm 0 W/m2
18:44 48.2 °F /  9 °C 45.3 °F /  7.4 °C 30.2in /  1021.7hPa Calm   2.5mph /  4km/h 89.7% 0in /  0.0mm 0 W/m2
18:49 48.2 °F /  9 °C 45.3 °F /  7.4 °C 30.2in /  1021.7hPa Calm     89.3% 0in /  0.0mm 0 W/m2
18:54 48.4 °F /  9.1 °C 45.3 °F /  7.4 °C 30.2in /  1021.3hPa Calm     89% 0in /  0.0mm 0 W/m2
18:59 48.4 °F /  9.1 °C 45.3 °F /  7.4 °C 30.2in /  1021.3hPa Calm     89.2% 0in /  0.0mm 0 W/m2
19:04 48.2 °F /  9 °C 45.3 °F /  7.4 °C 30.2in /  1021.3hPa Calm     89.6% 0in /  0.0mm 0 W/m2
19:09 48.2 °F /  9 °C 45.1 °F /  7.3 °C 30.2in /  1021.7hPa Calm   2.5mph /  4km/h 90% 0in /  0.0mm 0 W/m2
19:14 48 °F /  8.9 °C 45 °F /  7.2 °C 30.2in /  1021.7hPa Calm     89.2% 0in /  0.0mm 0 W/m2
19:19 48 °F /  8.9 °C 45 °F /  7.2 °C 30.2in /  1021.7hPa South 0.2mph /  0.4km/h 2.5mph /  4km/h 89% 0in /  0.0mm 0 W/m2
19:24 48 °F /  8.9 °C 45 °F /  7.2 °C 30.2in /  1022.0hPa South 0.9mph /  1.4km/h 4.9mph /  7.9km/h 89% 0in /  0.0mm 0 W/m2
19:29 48.2 °F /  9 °C 45.1 °F /  7.3 °C 30.2in /  1022.0hPa South 0.9mph /  1.4km/h 4.9mph /  7.9km/h 89% 0in /  0.0mm 0 W/m2
19:34 48.4 °F /  9.1 °C 45.3 °F /  7.4 °C 30.2in /  1021.7hPa Calm   2.5mph /  4km/h 89.4% 0in /  0.0mm 0 W/m2
19:39 48.2 °F /  9 °C 45.3 °F /  7.4 °C 30.2in /  1021.7hPa Calm     90.2% 0in /  0.0mm 0 W/m2
19:44 48 °F /  8.9 °C 45.9 °F /  7.7 °C 30.2in /  1021.7hPa Calm     91.9% 0in /  0.0mm 0 W/m2
19:49 46.9 °F /  8.3 °C 44.8 °F /  7.1 °C 30.2in /  1021.7hPa Calm     92.4% 0in /  0.0mm 0 W/m2
19:54 45.7 °F /  7.6 °C 44.1 °F /  6.7 °C 30.2in /  1021.7hPa Calm     93.8% 0in /  0.0mm 0 W/m2
19:59 45.7 °F /  7.6 °C 44.1 °F /  6.7 °C 30.2in /  1021.7hPa Calm     94% 0in /  0.0mm 0 W/m2
20:04 45.7 °F /  7.6 °C 44.2 °F /  6.8 °C 30.2in /  1021.7hPa Calm     94.7% 0in /  0.0mm 0 W/m2
20:09 45.3 °F /  7.4 °C 44.1 °F /  6.7 °C 30.2in /  1022.0hPa Calm     95% 0in /  0.0mm 0 W/m2
20:14 45.1 °F /  7.3 °C 44.2 °F /  6.8 °C 30.2in /  1021.7hPa South 0.1mph /  0.2km/h 2.5mph /  4km/h 96.1% 0in /  0.0mm 0 W/m2
20:19 45.3 °F /  7.4 °C 44.4 °F /  6.9 °C 30.2in /  1022.0hPa South 1.9mph /  3.1km/h 4.9mph /  7.9km/h 96.4% 0in /  0.0mm 0 W/m2
20:24 45.7 °F /  7.6 °C 44.6 °F /  7 °C 30.2in /  1022.0hPa South 1.7mph /  2.8km/h 7.6mph /  12.2km/h 96% 0in /  0.0mm 0 W/m2
20:29 46.6 °F /  8.1 °C 45.5 °F /  7.5 °C 30.2in /  1021.7hPa South 1.7mph /  2.7km/h 4.9mph /  7.9km/h 95.6% 0in /  0.0mm 0 W/m2
20:34 47.8 °F /  8.8 °C 46.8 °F /  8.2 °C 30.2in /  1021.7hPa South 2.3mph /  3.7km/h 7.6mph /  12.2km/h 95.8% 0in /  0.0mm 0 W/m2
20:39 47.8 °F /  8.8 °C 46.8 °F /  8.2 °C 30.2in /  1021.7hPa South 2.5mph /  4km/h 7.6mph /  12.2km/h 96.4% 0in /  0.0mm 0 W/m2
20:44 47.8 °F /  8.8 °C 46.9 °F /  8.3 °C 30.2in /  1021.7hPa South 1.2mph /  2km/h 4.9mph /  7.9km/h 97% 0in /  0.0mm 0 W/m2
20:49 47.8 °F /  8.8 °C 47.1 °F /  8.4 °C 30.2in /  1021.7hPa Calm   4.9mph /  7.9km/h 97.3% 0in /  0.0mm 0 W/m2
20:54 47.8 °F /  8.8 °C 47.3 °F /  8.5 °C 30.2in /  1021.3hPa Calm     98% 0in /  0.0mm 0 W/m2
20:59 47.8 °F /  8.8 °C 47.1 °F /  8.4 °C 30.2in /  1021.3hPa Calm     97.4% 0in /  0.0mm 0 W/m2
21:04 47.8 °F /  8.8 °C 46.9 °F /  8.3 °C 30.2in /  1021.3hPa Calm     97.2% 0in /  0.0mm 0 W/m2
21:09 47.8 °F /  8.8 °C 47.3 °F /  8.5 °C 30.2in /  1021.3hPa Calm     98% 0in /  0.0mm 0 W/m2
21:14 47.8 °F /  8.8 °C 47.3 °F /  8.5 °C 30.2in /  1021.3hPa Calm     98% 0in /  0.0mm 0 W/m2
21:19 47.8 °F /  8.8 °C 47.3 °F /  8.5 °C 30.2in /  1021.3hPa Calm     98% 0in /  0.0mm 0 W/m2
21:24 47.8 °F /  8.8 °C 47.3 °F /  8.5 °C 30.2in /  1021.3hPa Calm     98% 0in /  0.0mm 0 W/m2
21:29 47.8 °F /  8.8 °C 47.7 °F /  8.7 °C 30.2in /  1021.3hPa Calm     98.9% 0in /  0.0mm 0 W/m2
21:34 47.8 °F /  8.8 °C 47.7 °F /  8.7 °C 30.2in /  1021.3hPa Calm     99% 0in /  0.0mm 0 W/m2
21:39 47.7 °F /  8.7 °C 47.3 °F /  8.5 °C 30.2in /  1021.3hPa Calm     98.7% 0in /  0.0mm 0 W/m2
21:44 47.7 °F /  8.7 °C 47.3 °F /  8.5 °C 30.2in /  1021.3hPa Calm     98.6% 0in /  0.0mm 0 W/m2
21:49 47.7 °F /  8.7 °C 47.5 °F /  8.6 °C 30.2in /  1021.3hPa Calm     99% 0in /  0.0mm 0 W/m2
21:54 47.8 °F /  8.8 °C 47.7 °F /  8.7 °C 30.2in /  1021.3hPa Calm     99% 0in /  0.0mm 0 W/m2
21:59 47.8 °F /  8.8 °C 47.7 °F /  8.7 °C 30.2in /  1021.3hPa Calm     99% 0in /  0.0mm 0 W/m2
22:04 47.8 °F /  8.8 °C 47.7 °F /  8.7 °C 30.2in /  1021.3hPa Calm     99% 0in /  0.0mm 0 W/m2
22:09 47.8 °F /  8.8 °C 47.7 °F /  8.7 °C 30.2in /  1021.3hPa Calm     99% 0in /  0.0mm 0 W/m2
22:14 48 °F /  8.9 °C 47.8 °F /  8.8 °C 30.2in /  1021.3hPa Calm     99% 0in /  0.0mm 0 W/m2
22:19 48 °F /  8.9 °C 47.8 °F /  8.8 °C 30.2in /  1021.3hPa South 0.1mph /  0.1km/h 4.9mph /  7.9km/h 99% 0in /  0.0mm 0 W/m2
22:24 48 °F /  8.9 °C 47.8 °F /  8.8 °C 30.2in /  1021.3hPa Calm     99% 0in /  0.0mm 0 W/m2
22:29 48 °F /  8.9 °C 47.8 °F /  8.8 °C 30.2in /  1021.0hPa Calm     99% 0in /  0.0mm 0 W/m2
22:34 48 °F /  8.9 °C 47.8 °F /  8.8 °C 30.2in /  1021.0hPa Calm     99% 0in /  0.0mm 0 W/m2
22:39 47.8 °F /  8.8 °C 47.7 °F /  8.7 °C 30.2in /  1021.0hPa Calm     99% 0in /  0.0mm 0 W/m2
22:44 47.8 °F /  8.8 °C 47.3 °F /  8.5 °C 30.2in /  1021.0hPa SE 0.2mph /  0.4km/h 2.5mph /  4km/h 98.2% 0in /  0.0mm 0 W/m2
22:49 47.5 °F /  8.6 °C 47.1 °F /  8.4 °C 30.2in /  1021.0hPa Calm     98.4% 0in /  0.0mm 0 W/m2
22:54 46.4 °F /  8 °C 46 °F /  7.8 °C 30.2in /  1021.0hPa Calm     98.7% 0in /  0.0mm 0 W/m2
22:59 46.4 °F /  8 °C 46.2 °F /  7.9 °C 30.2in /  1021.0hPa Calm     99% 0in /  0.0mm 0 W/m2
23:04 46.2 °F /  7.9 °C 46 °F /  7.8 °C 30.2in /  1021.0hPa Calm     99% 0in /  0.0mm 0 W/m2
23:09 46.2 °F /  7.9 °C 46 °F /  7.8 °C 30.2in /  1021.0hPa Calm     99% 0in /  0.0mm 0 W/m2
23:14 46.2 °F /  7.9 °C 45.9 °F /  7.7 °C 30.2in /  1021.0hPa Calm     98.9% 0in /  0.0mm 0 W/m2
23:19 46 °F /  7.8 °C 45.7 °F /  7.6 °C 30.2in /  1021.0hPa Calm     98.7% 0in /  0.0mm 0 W/m2
23:24 46 °F /  7.8 °C 45.9 °F /  7.7 °C 30.1in /  1020.7hPa Calm     98.7% 0in /  0.0mm 0 W/m2
23:29 45.9 °F /  7.7 °C 45 °F /  7.2 °C 30.1in /  1020.7hPa Calm     96.2% 0in /  0.0mm 0 W/m2
23:34 45.3 °F /  7.4 °C 44.2 °F /  6.8 °C 30.1in /  1020.7hPa Calm     95.7% 0in /  0.0mm 0 W/m2
23:39 45.3 °F /  7.4 °C 44.1 °F /  6.7 °C 30.1in /  1020.7hPa Calm     95% 0in /  0.0mm 0 W/m2
23:44 45.3 °F /  7.4 °C 44.1 °F /  6.7 °C 30.1in /  1020.7hPa Calm     95% 0in /  0.0mm 0 W/m2
23:49 45.1 °F /  7.3 °C 43.9 °F /  6.6 °C 30.1in /  1020.3hPa Calm     95% 0in /  0.0mm 0 W/m2
23:54 45.3 °F /  7.4 °C 44.1 °F /  6.7 °C 30.1in /  1020.3hPa Calm     95% 0in /  0.0mm 0 W/m2
23:59 45.1 °F /  7.3 °C 43.7 °F /  6.5 °C 30.1in /  1020.3hPa Calm     94.4% 0in /  0.0mm 0 W/m2
Juneau County Weather
Compliments of Weather Underground - 2 mb